Main page
METAR-TAF:

METAR-TAF

Airports :

Flora Municipal Airport

Flora, Illinois, United States

latitude: 38-39-54N, longitude: 088-27-11W, elevation: 472 ft

Current weather observation

The report was made 23 minutes ago, at 18:55 UTC
Wind 13 mph from the Southwest
Temperature 90°F
Humidity 67%
Pressure 30.03 in. Hg
Visibility: 10 miles
Scattered clouds at a height of 4100 ft

METAR: KFOA 141855Z AUTO 22011KT 10SM SCT041 32/25 A3003 RMK AO2

Time: 14:18 (19:18 UTC)


TAF: missing

Weather observations and forecasts of more than 4000 airports (METAR and TAF reports).

The available stations are represented by yellow and red dots on the map.

Hover mouse over dot to see the name of the station.

Then click to see weather observations and forecasts.

To change the map : click on the green buttons with a black cross to zoom in, on the green button with a dash to zoom out, or on the green arrows for adjacent maps.


METAR-TAF: